Time;durP1;ratioP1;P1;durP2;ratioP2;P2;SDS_P1;SDS_P2;PMS_P1;PMS_P2;Temp;Humidity;BMP_temperature;BMP_pressure;BME280_temperature;BME280_humidity;BME280_pressure;Samples;Min_cycle;Max_cycle;Signal;HPM_P1;HPM_P2
2022/08/16 00:00:49;;;;;;;0.73;0.73;;;16.80;99.90;;;;;;5096600;28;20846;-69
2022/08/16 00:03:16;;;;;;;1.43;1.13;;;16.70;99.90;;;;;;5078050;28;20533;-68
2022/08/16 00:05:42;;;;;;;1.43;1.33;;;16.60;99.90;;;;;;5096297;28;20498;-69
2022/08/16 00:08:08;;;;;;;2.27;1.23;;;16.50;99.90;;;;;;5096298;28;20407;-69
2022/08/16 00:10:34;;;;;;;1.57;1.47;;;16.50;99.90;;;;;;5096218;28;20411;-69
2022/08/16 00:13:01;;;;;;;1.20;1.03;;;16.50;99.90;;;;;;5096224;28;20404;-69
2022/08/16 00:15:43;;;;;;;2.40;2.30;;;16.50;99.90;;;;;;5078021;28;20485;-69
2022/08/16 00:18:09;;;;;;;1.20;1.07;;;16.50;99.90;;;;;;5095789;28;20536;-68
2022/08/16 00:20:37;;;;;;;1.53;1.43;;;16.60;99.90;;;;;;5095917;28;20542;-69
2022/08/16 00:23:04;;;;;;;0.93;0.93;;;16.60;99.90;;;;;;5096023;28;20487;-69
2022/08/16 00:25:30;;;;;;;1.67;1.47;;;16.70;99.90;;;;;;5096152;28;20738;-70
2022/08/16 00:27:55;;;;;;;1.10;1.00;;;16.60;99.90;;;;;;5095577;28;20422;-69
2022/08/16 00:30:22;;;;;;;0.97;0.97;;;16.60;99.90;;;;;;5095931;28;20417;-68
2022/08/16 00:32:50;;;;;;;0.90;0.90;;;16.60;99.90;;;;;;5095714;28;20173;-69
2022/08/16 00:35:24;;;;;;;1.13;1.13;;;16.60;99.90;;;;;;5095703;28;20768;-69
2022/08/16 00:37:50;;;;;;;2.70;2.00;;;16.60;99.90;;;;;;5095519;28;20558;-69
2022/08/16 00:40:35;;;;;;;0.67;0.67;;;16.60;99.90;;;;;;5095558;28;20450;-70
2022/08/16 00:43:05;;;;;;;1.97;1.87;;;16.50;99.90;;;;;;5095690;28;20403;-69
2022/08/16 00:45:42;;;;;;;1.53;1.13;;;16.50;99.90;;;;;;5095675;28;20460;-69
2022/08/16 00:48:12;;;;;;;1.13;1.13;;;16.50;99.90;;;;;;5095045;28;20449;-69
2022/08/16 00:50:39;;;;;;;1.90;1.10;;;16.50;99.90;;;;;;5095608;28;20402;-68
2022/08/16 00:53:08;;;;;;;1.27;1.27;;;16.60;99.90;;;;;;5095497;28;20779;-68
2022/08/16 00:55:35;;;;;;;2.67;2.47;;;16.70;99.90;;;;;;5077447;28;20412;-69
2022/08/16 00:58:02;;;;;;;1.03;0.90;;;16.80;99.90;;;;;;5095036;28;20446;-69
2022/08/16 01:00:31;;;;;;;2.10;1.37;;;16.80;99.90;;;;;;5095175;28;20454;-69
2022/08/16 01:02:59;;;;;;;1.60;1.00;;;16.80;99.90;;;;;;5095162;28;20476;-70
2022/08/16 01:05:26;;;;;;;0.63;0.63;;;16.70;99.90;;;;;;5095243;28;20435;-69
2022/08/16 01:07:52;;;;;;;1.10;1.10;;;16.80;99.90;;;;;;5094903;28;20438;-70
2022/08/16 01:10:23;;;;;;;1.13;1.03;;;16.70;99.90;;;;;;5095155;28;20777;-69
2022/08/16 01:12:48;;;;;;;0.80;0.80;;;16.60;99.90;;;;;;5095249;28;20414;-69
2022/08/16 01:15:15;;;;;;;0.60;0.60;;;16.50;99.90;;;;;;5094994;28;20414;-69
2022/08/16 01:17:43;;;;;;;0.70;0.70;;;16.40;99.90;;;;;;5094669;28;20203;-69
2022/08/16 01:20:11;;;;;;;1.70;1.27;;;16.30;99.90;;;;;;5094913;28;20950;-69
2022/08/16 01:22:58;;;;;;;1.27;1.20;;;16.40;99.90;;;;;;5094669;28;20761;-69
2022/08/16 01:25:29;;;;;;;1.33;0.70;;;16.30;99.90;;;;;;5095011;28;20436;-70
2022/08/16 01:27:59;;;;;;;1.50;1.40;;;16.30;99.90;;;;;;5094555;28;20434;-68
2022/08/16 01:30:29;;;;;;;0.60;0.53;;;16.30;99.90;;;;;;5094785;28;20406;-69
2022/08/16 01:32:57;;;;;;;1.37;1.27;;;16.20;99.90;;;;;;5094865;28;20421;-69
2022/08/16 01:35:29;;;;;;;1.27;1.17;;;16.20;99.90;;;;;;5094650;28;20927;-69
2022/08/16 01:37:56;;;;;;;1.97;0.90;;;16.10;99.90;;;;;;5094248;28;20482;-69
2022/08/16 01:40:28;;;;;;;1.57;1.47;;;16.10;99.90;;;;;;5094775;28;20854;-69
2022/08/16 01:42:55;;;;;;;2.53;2.33;;;16.10;99.90;;;;;;5094463;28;20406;-70
2022/08/16 01:45:21;;;;;;;1.23;0.83;;;16.10;99.90;;;;;;5094411;28;20494;-68
2022/08/16 01:47:49;;;;;;;1.10;1.10;;;16.00;99.90;;;;;;5094248;28;20522;-69
2022/08/16 01:50:15;;;;;;;2.37;1.57;;;16.00;99.90;;;;;;5094273;28;20407;-68
2022/08/16 01:52:42;;;;;;;1.70;1.23;;;15.90;99.90;;;;;;5094468;28;20412;-69
2022/08/16 01:55:08;;;;;;;1.27;1.17;;;15.90;99.90;;;;;;5094424;28;20401;-69
2022/08/16 01:57:33;;;;;;;1.20;1.10;;;15.80;99.90;;;;;;5094010;28;20436;-68
2022/08/16 01:59:59;;;;;;;1.23;1.20;;;15.80;99.90;;;;;;5093429;28;20447;-69
2022/08/16 02:02:25;;;;;;;1.03;0.97;;;15.80;99.90;;;;;;5093880;28;20199;-69
2022/08/16 02:04:51;;;;;;;1.13;1.03;;;15.80;99.90;;;;;;5094081;28;20402;-69
2022/08/16 02:07:19;;;;;;;1.60;1.50;;;15.80;99.90;;;;;;5093944;28;20188;-68
2022/08/16 02:09:47;;;;;;;5.77;2.03;;;15.80;99.90;;;;;;5093783;28;20945;-68
2022/08/16 02:12:15;;;;;;;1.30;1.30;;;15.80;99.90;;;;;;5093827;28;20442;-69
2022/08/16 02:14:42;;;;;;;2.00;1.43;;;15.90;99.90;;;;;;5094083;28;20418;-69
2022/08/16 02:17:10;;;;;;;1.57;1.47;;;15.80;99.90;;;;;;5093777;28;20476;-69
2022/08/16 02:19:41;;;;;;;1.20;1.10;;;15.80;99.90;;;;;;5093557;28;20434;-69
2022/08/16 02:22:09;;;;;;;0.90;0.80;;;15.70;99.90;;;;;;5094076;28;20423;-69
2022/08/16 02:24:36;;;;;;;1.67;1.57;;;15.60;99.90;;;;;;5093958;28;20893;-68
2022/08/16 02:27:03;;;;;;;1.03;0.97;;;15.60;99.90;;;;;;5093606;28;20419;-70
2022/08/16 02:29:29;;;;;;;1.00;1.00;;;15.60;99.90;;;;;;5093463;28;20411;-68
2022/08/16 02:31:55;;;;;;;1.20;1.17;;;15.60;99.90;;;;;;5093668;28;20757;-69
2022/08/16 02:34:21;;;;;;;1.53;1.43;;;15.50;99.90;;;;;;5093753;28;20170;-70
2022/08/16 02:36:47;;;;;;;1.17;1.17;;;15.60;99.90;;;;;;5093779;28;20884;-70
2022/08/16 02:39:14;;;;;;;1.57;1.47;;;15.60;99.90;;;;;;5093588;28;20423;-70
2022/08/16 02:41:41;;;;;;;0.60;0.60;;;15.50;99.90;;;;;;5075425;28;20460;-69
2022/08/16 02:44:10;;;;;;;0.70;0.50;;;15.50;99.90;;;;;;5093669;28;20430;-69
2022/08/16 02:46:36;;;;;;;0.80;0.80;;;15.50;99.90;;;;;;5075302;28;20515;-69
2022/08/16 02:49:04;;;;;;;0.93;0.93;;;15.40;99.90;;;;;;5093532;28;20895;-69
2022/08/16 02:51:29;;;;;;;1.63;1.53;;;15.40;99.90;;;;;;5093448;28;20762;-69
2022/08/16 02:53:55;;;;;;;1.20;1.10;;;15.40;99.90;;;;;;5093597;28;20403;-70
2022/08/16 02:56:21;;;;;;;3.70;1.43;;;15.50;99.90;;;;;;5093474;28;20192;-69
2022/08/16 02:58:49;;;;;;;1.63;1.00;;;15.50;99.90;;;;;;5093215;28;20180;-70
2022/08/16 03:01:24;;;;;;;2.00;1.87;;;15.50;99.90;;;;;;5093540;28;20654;-69
2022/08/16 03:03:51;;;;;;;0.97;0.97;;;15.40;99.90;;;;;;5093392;28;20512;-69
2022/08/16 03:06:19;;;;;;;1.60;1.50;;;15.40;99.90;;;;;;5093305;28;20903;-70
2022/08/16 03:08:48;;;;;;;2.00;1.83;;;15.30;99.90;;;;;;5092994;28;20883;-70
2022/08/16 03:11:17;;;;;;;1.37;1.37;;;15.30;99.90;;;;;;5093608;28;20489;-68
2022/08/16 03:13:47;;;;;;;1.17;1.10;;;15.20;99.90;;;;;;5097351;28;20781;-70
2022/08/16 03:16:13;;;;;;;2.20;1.63;;;15.10;99.90;;;;;;5097401;28;20433;-69
2022/08/16 03:18:40;;;;;;;4.20;2.10;;;15.10;99.90;;;;;;5097350;28;20398;-69
2022/08/16 03:21:06;;;;;;;2.40;1.93;;;15.20;99.90;;;;;;5097060;28;20498;-69
2022/08/16 03:23:33;;;;;;;1.67;1.20;;;15.20;99.90;;;;;;5097319;28;20399;-69
2022/08/16 03:25:59;;;;;;;1.17;1.00;;;15.10;99.90;;;;;;5078964;28;20410;-70
2022/08/16 03:28:25;;;;;;;1.47;1.37;;;15.20;99.90;;;;;;5096826;28;20424;-69
2022/08/16 03:30:50;;;;;;;1.50;1.40;;;15.10;99.90;;;;;;5078920;28;20487;-69
2022/08/16 03:33:16;;;;;;;2.43;2.33;;;15.10;99.90;;;;;;5097142;28;20180;-70
2022/08/16 03:35:43;;;;;;;1.60;1.50;;;15.10;99.90;;;;;;5096996;28;20176;-68
2022/08/16 03:38:13;;;;;;;2.00;1.90;;;15.10;99.90;;;;;;5096667;28;20168;-68
2022/08/16 03:40:39;;;;;;;0.50;0.50;;;15.10;99.90;;;;;;5096988;28;20549;-68
2022/08/16 03:43:08;;;;;;;2.00;1.90;;;15.00;99.90;;;;;;5078587;28;20406;-69
2022/08/16 03:45:34;;;;;;;2.07;1.50;;;15.00;99.90;;;;;;5096820;28;20884;-69
2022/08/16 03:48:01;;;;;;;1.07;0.93;;;15.00;99.90;;;;;;5096415;28;20434;-70
2022/08/16 03:50:27;;;;;;;2.47;2.37;;;15.00;99.90;;;;;;5096811;28;20408;-69
2022/08/16 03:52:53;;;;;;;2.07;1.97;;;14.90;99.90;;;;;;5096514;28;20434;-69
2022/08/16 03:55:19;;;;;;;0.93;0.93;;;14.80;99.90;;;;;;5096500;28;20921;-68
2022/08/16 03:57:45;;;;;;;0.80;0.80;;;14.90;99.90;;;;;;5096243;28;20190;-69
2022/08/16 04:00:13;;;;;;;1.40;1.33;;;15.00;99.90;;;;;;5096336;28;20446;-69
2022/08/16 04:02:40;;;;;;;1.30;1.30;;;14.90;99.90;;;;;;5096290;28;20238;-69
2022/08/16 04:05:06;;;;;;;3.43;1.80;;;14.90;99.90;;;;;;5096339;28;20403;-68
2022/08/16 04:07:32;;;;;;;2.00;1.70;;;14.80;99.90;;;;;;5096162;28;20467;-70
2022/08/16 04:09:57;;;;;;;0.70;0.70;;;14.80;99.90;;;;;;5095962;28;20446;-70
2022/08/16 04:12:23;;;;;;;1.20;1.20;;;14.90;99.90;;;;;;5096253;28;20177;-69
2022/08/16 04:14:49;;;;;;;0.63;0.63;;;14.90;99.90;;;;;;5077928;28;20176;-69
2022/08/16 04:17:15;;;;;;;2.07;1.97;;;14.80;99.90;;;;;;5077917;28;20207;-69
2022/08/16 04:19:43;;;;;;;1.10;1.00;;;14.80;99.90;;;;;;5096027;28;20878;-70
2022/08/16 04:22:10;;;;;;;1.50;1.17;;;14.80;99.90;;;;;;5096421;28;20418;-68
2022/08/16 04:24:36;;;;;;;2.93;1.87;;;14.80;99.90;;;;;;5095059;28;20486;-69
2022/08/16 04:27:02;;;;;;;2.00;1.00;;;14.80;99.90;;;;;;5095870;28;20426;-69
2022/08/16 04:29:29;;;;;;;1.27;1.27;;;14.80;99.90;;;;;;5095917;28;20403;-68
2022/08/16 04:31:54;;;;;;;0.70;0.70;;;14.80;99.90;;;;;;5096004;28;20769;-70
2022/08/16 04:34:20;;;;;;;0.77;0.77;;;14.80;99.90;;;;;;5095954;28;20404;-70
2022/08/16 04:36:47;;;;;;;2.47;2.27;;;14.80;99.90;;;;;;5095707;28;20200;-70
2022/08/16 04:39:12;;;;;;;1.17;0.97;;;14.80;99.90;;;;;;5095684;28;20455;-70
2022/08/16 04:41:38;;;;;;;1.20;0.90;;;14.80;99.90;;;;;;5095565;28;20503;-69
2022/08/16 04:44:04;;;;;;;1.20;1.00;;;14.90;99.90;;;;;;5095822;28;20176;-69
2022/08/16 04:46:29;;;;;;;1.67;1.57;;;14.90;99.90;;;;;;5095524;28;20234;-68
2022/08/16 04:48:55;;;;;;;2.60;1.80;;;14.90;99.90;;;;;;5095313;28;20251;-70
2022/08/16 04:51:21;;;;;;;2.80;2.30;;;15.00;99.90;;;;;;5095400;28;20176;-69
2022/08/16 04:53:47;;;;;;;1.77;1.73;;;15.00;99.90;;;;;;5095395;28;20796;-70
2022/08/16 04:56:14;;;;;;;1.33;1.23;;;15.00;99.90;;;;;;5095278;28;20190;-69
2022/08/16 04:58:40;;;;;;;2.20;2.07;;;15.00;99.90;;;;;;5095127;28;20411;-70
2022/08/16 05:01:05;;;;;;;0.70;0.70;;;15.00;99.90;;;;;;5095430;28;20783;-70
2022/08/16 05:03:31;;;;;;;1.00;0.97;;;15.00;99.90;;;;;;5095136;28;20191;-68
2022/08/16 05:05:57;;;;;;;0.60;0.60;;;15.00;99.90;;;;;;5095071;28;20337;-69
2022/08/16 05:08:26;;;;;;;1.33;1.23;;;15.00;99.90;;;;;;5095048;28;20162;-69
2022/08/16 05:10:53;;;;;;;0.77;0.77;;;15.00;99.90;;;;;;5095157;28;20170;-70
2022/08/16 05:13:19;;;;;;;1.80;1.70;;;15.10;99.90;;;;;;5094894;28;20469;-69
2022/08/16 05:15:45;;;;;;;1.57;1.23;;;15.10;99.90;;;;;;5094984;28;20407;-69
2022/08/16 05:18:12;;;;;;;1.83;1.73;;;15.20;99.90;;;;;;5094713;28;20408;-69
2022/08/16 05:20:38;;;;;;;3.03;2.03;;;15.20;99.90;;;;;;5094628;28;20478;-69
2022/08/16 05:23:03;;;;;;;2.20;1.57;;;15.30;99.90;;;;;;5094887;28;20438;-70
2022/08/16 05:25:29;;;;;;;2.50;2.23;;;15.30;99.90;;;;;;5094786;28;20165;-69
2022/08/16 05:27:56;;;;;;;1.10;1.10;;;15.50;99.90;;;;;;5094507;28;20191;-69
2022/08/16 05:30:22;;;;;;;6.10;2.83;;;15.70;99.90;;;;;;5094858;28;20171;-68
2022/08/16 05:32:48;;;;;;;2.30;2.10;;;15.90;99.90;;;;;;5094826;28;20406;-68
2022/08/16 05:35:14;;;;;;;0.70;0.70;;;16.20;99.90;;;;;;5094628;28;20399;-68
2022/08/16 05:37:41;;;;;;;1.27;1.23;;;16.50;99.90;;;;;;5094430;28;20195;-68
2022/08/16 05:40:09;;;;;;;1.30;1.13;;;17.00;99.90;;;;;;5094437;28;20445;-69
2022/08/16 05:42:34;;;;;;;0.70;0.70;;;17.40;99.90;;;;;;5094567;28;20498;-69
2022/08/16 05:45:00;;;;;;;1.37;1.00;;;17.80;99.90;;;;;;5094612;28;21017;-70
2022/08/16 05:47:26;;;;;;;1.20;1.10;;;18.40;99.90;;;;;;5094360;28;20180;-70
2022/08/16 05:49:52;;;;;;;0.63;0.63;;;18.90;99.90;;;;;;5076090;28;20181;-70
2022/08/16 05:52:18;;;;;;;0.93;0.93;;;19.30;99.10;;;;;;5094505;28;20412;-69
2022/08/16 05:54:44;;;;;;;0.93;0.93;;;19.50;98.40;;;;;;5094499;28;20179;-70
2022/08/16 05:57:10;;;;;;;0.70;0.70;;;19.70;97.70;;;;;;5075974;28;20437;-69
2022/08/16 05:59:36;;;;;;;1.00;0.90;;;19.90;97.20;;;;;;5093906;28;20410;-69
2022/08/16 06:02:04;;;;;;;0.93;0.87;;;20.30;96.70;;;;;;5094196;28;20395;-69
2022/08/16 06:04:29;;;;;;;0.73;0.60;;;20.70;96.30;;;;;;5076016;28;20424;-70
2022/08/16 06:06:55;;;;;;;0.70;0.70;;;20.90;95.70;;;;;;5093892;28;20423;-69
2022/08/16 06:09:21;;;;;;;1.43;1.33;;;20.80;95.50;;;;;;5093859;28;20595;-70
2022/08/16 06:11:47;;;;;;;0.83;0.83;;;20.60;95.40;;;;;;5076319;28;20175;-69
2022/08/16 06:14:13;;;;;;;1.23;1.23;;;20.50;94.90;;;;;;5094112;28;20179;-69
2022/08/16 06:16:39;;;;;;;0.50;0.50;;;20.20;95.30;;;;;;5094001;28;20188;-70
2022/08/16 06:19:04;;;;;;;0.63;0.63;;;20.10;95.80;;;;;;5093660;28;20405;-69
2022/08/16 06:21:30;;;;;;;1.40;1.30;;;20.00;95.90;;;;;;5094096;28;20445;-69
2022/08/16 06:23:56;;;;;;;0.70;0.63;;;19.90;96.30;;;;;;5093890;28;20199;-70
2022/08/16 06:26:22;;;;;;;1.53;1.43;;;19.70;96.70;;;;;;5093748;28;20188;-71
2022/08/16 06:28:48;;;;;;;0.90;0.90;;;19.60;96.90;;;;;;5093591;28;20164;-69
2022/08/16 06:31:15;;;;;;;1.57;1.47;;;19.60;97.30;;;;;;5093674;28;20968;-70
2022/08/16 06:33:42;;;;;;;0.70;0.70;;;19.70;97.80;;;;;;5093939;28;20175;-69
2022/08/16 06:36:08;;;;;;;1.20;1.10;;;20.00;98.00;;;;;;5093631;28;20426;-70
2022/08/16 06:38:35;;;;;;;0.50;0.50;;;20.20;97.30;;;;;;5093498;28;20410;-70
2022/08/16 06:41:06;;;;;;;0.70;0.70;;;20.60;97.40;;;;;;5093690;28;20539;-69
2022/08/16 06:43:33;;;;;;;1.00;0.80;;;21.10;96.60;;;;;;5093739;28;20445;-70
2022/08/16 06:46:01;;;;;;;0.60;0.57;;;21.40;95.80;;;;;;5094210;28;20769;-70
2022/08/16 06:48:26;;;;;;;1.10;1.00;;;21.60;95.80;;;;;;5100365;28;20400;-70
2022/08/16 06:50:52;;;;;;;0.77;0.77;;;21.80;95.60;;;;;;5100381;28;20401;-70
2022/08/16 06:53:19;;;;;;;1.13;1.03;;;22.00;95.20;;;;;;5100392;28;20419;-70
2022/08/16 06:55:45;;;;;;;0.93;0.93;;;22.10;95.00;;;;;;5100341;28;20174;-70
2022/08/16 06:58:11;;;;;;;0.70;0.70;;;22.20;94.90;;;;;;5099986;28;20451;-70
2022/08/16 07:00:37;;;;;;;1.23;1.00;;;22.20;94.70;;;;;;5100066;28;20484;-70
2022/08/16 07:03:04;;;;;;;0.90;0.90;;;22.20;94.90;;;;;;5100188;28;20179;-70
2022/08/16 07:05:30;;;;;;;0.87;0.83;;;22.30;94.90;;;;;;5100368;28;20399;-71
2022/08/16 07:07:57;;;;;;;1.10;1.00;;;22.60;94.30;;;;;;5099894;28;20393;-70
2022/08/16 07:10:23;;;;;;;0.67;0.67;;;23.10;94.10;;;;;;5100287;28;20414;-71
2022/08/16 07:12:50;;;;;;;0.50;0.50;;;23.70;93.70;;;;;;5100135;28;20504;-71
2022/08/16 07:15:19;;;;;;;0.90;0.90;;;24.30;92.60;;;;;;5100016;28;20400;-71
2022/08/16 07:17:45;;;;;;;1.00;0.90;;;24.80;92.10;;;;;;5099792;28;20905;-71
2022/08/16 07:20:12;;;;;;;0.87;0.87;;;25.10;91.30;;;;;;5100029;28;20931;-71
2022/08/16 07:22:40;;;;;;;1.43;1.00;;;25.30;91.30;;;;;;5100083;28;20455;-70
2022/08/16 07:25:10;;;;;;;1.23;1.13;;;25.60;90.30;;;;;;5100091;28;20406;-71
2022/08/16 07:27:37;;;;;;;1.50;1.40;;;26.30;89.20;;;;;;5099686;28;20450;-70
2022/08/16 07:30:08;;;;;;;1.30;1.20;;;27.50;85.50;;;;;;5099980;28;20398;-70
2022/08/16 07:32:34;;;;;;;1.50;1.20;;;28.90;78.20;;;;;;5099920;28;20437;-71
2022/08/16 07:34:59;;;;;;;0.80;0.80;;;30.30;74.10;;;;;;5099968;28;20449;-68
2022/08/16 07:37:25;;;;;;;1.40;1.30;;;31.40;68.40;;;;;;5099789;28;20192;-69
2022/08/16 07:39:51;;;;;;;1.73;1.43;;;32.70;63.70;;;;;;5099709;28;20664;-69
2022/08/16 07:42:17;;;;;;;0.70;0.70;;;33.70;55.80;;;;;;5099791;28;20169;-69
2022/08/16 07:44:42;;;;;;;1.23;1.10;;;34.00;54.80;;;;;;5099818;28;20399;-69
2022/08/16 07:47:08;;;;;;;1.27;0.90;;;33.70;54.40;;;;;;5099726;28;20228;-68
2022/08/16 07:49:33;;;;;;;1.40;1.13;;;32.60;54.80;;;;;;5099815;28;20230;-69
2022/08/16 07:51:59;;;;;;;1.10;0.90;;;32.00;57.80;;;;;;5099645;28;20264;-69
2022/08/16 07:54:25;;;;;;;1.10;1.10;;;32.20;58.30;;;;;;5099880;28;20177;-69
2022/08/16 07:56:51;;;;;;;1.20;1.00;;;33.10;56.40;;;;;;5099584;28;20207;-68
2022/08/16 07:59:16;;;;;;;1.00;0.80;;;33.80;52.80;;;;;;5095374;28;20407;-69
2022/08/16 08:01:42;;;;;;;1.27;1.17;;;34.10;52.00;;;;;;5096320;28;20200;-69
2022/08/16 08:04:11;;;;;;;1.20;0.93;;;33.60;51.50;;;;;;5096451;28;20173;-69
2022/08/16 08:06:37;;;;;;;1.23;0.90;;;33.60;52.20;;;;;;5096322;28;20558;-69
2022/08/16 08:09:03;;;;;;;0.73;0.73;;;33.70;51.70;;;;;;5096073;28;20401;-68
2022/08/16 08:11:29;;;;;;;1.13;1.10;;;33.20;51.00;;;;;;5096257;28;20199;-68
2022/08/16 08:13:59;;;;;;;1.40;0.63;;;32.40;52.00;;;;;;5096191;28;20177;-68
2022/08/16 08:16:25;;;;;;;1.07;0.97;;;32.10;52.80;;;;;;5096083;28;20426;-68
2022/08/16 08:18:53;;;;;;;1.10;1.00;;;32.50;51.60;;;;;;5077814;28;20934;-69
2022/08/16 08:21:20;;;;;;;1.03;0.93;;;32.40;51.00;;;;;;5095975;28;20580;-69
2022/08/16 08:23:47;;;;;;;0.70;0.70;;;32.50;51.70;;;;;;5096405;28;20849;-69
2022/08/16 08:26:13;;;;;;;1.23;1.13;;;32.50;51.90;;;;;;5096079;28;20430;-68
2022/08/16 08:28:39;;;;;;;0.70;0.70;;;32.60;50.70;;;;;;5095817;28;20917;-69
2022/08/16 08:31:05;;;;;;;0.80;0.80;;;32.60;50.60;;;;;;5096098;28;20797;-69
2022/08/16 08:33:31;;;;;;;0.77;0.77;;;32.60;51.00;;;;;;5095949;28;20501;-69
2022/08/16 08:36:00;;;;;;;0.77;0.77;;;33.20;50.10;;;;;;5095871;28;20837;-68
2022/08/16 08:38:26;;;;;;;1.37;1.37;;;33.90;49.80;;;;;;5095548;28;20511;-67
2022/08/16 08:40:53;;;;;;;1.87;1.77;;;34.40;48.80;;;;;;5095801;28;20469;-68
2022/08/16 08:43:18;;;;;;;1.10;0.80;;;35.10;47.40;;;;;;5095714;28;20411;-68
2022/08/16 08:45:44;;;;;;;1.07;1.03;;;35.30;46.20;;;;;;5095694;28;20461;-69
2022/08/16 08:48:10;;;;;;;1.73;1.10;;;35.20;45.10;;;;;;5095483;28;20617;-69
2022/08/16 08:50:37;;;;;;;1.17;1.07;;;35.00;45.10;;;;;;5095583;28;20406;-68
2022/08/16 08:53:02;;;;;;;1.07;1.07;;;34.40;45.10;;;;;;5095672;28;20173;-67
2022/08/16 08:55:30;;;;;;;1.67;1.57;;;34.10;45.50;;;;;;5095441;28;20415;-67
2022/08/16 08:57:56;;;;;;;1.57;1.40;;;32.90;47.00;;;;;;5095141;28;20184;-68
2022/08/16 09:00:24;;;;;;;1.97;1.60;;;31.80;48.50;;;;;;5095392;28;20814;-68
2022/08/16 09:02:50;;;;;;;0.60;0.60;;;31.00;50.10;;;;;;5095165;28;20489;-68
2022/08/16 09:05:18;;;;;;;0.87;0.87;;;30.60;49.90;;;;;;5095249;28;20438;-68
2022/08/16 09:07:44;;;;;;;1.27;1.20;;;30.00;51.20;;;;;;5094821;28;20661;-68
2022/08/16 09:10:10;;;;;;;0.73;0.73;;;29.50;52.30;;;;;;5094960;28;20902;-68
2022/08/16 09:12:37;;;;;;;1.30;1.00;;;29.30;51.70;;;;;;5095146;28;20403;-68
2022/08/16 09:15:06;;;;;;;0.97;0.97;;;29.30;52.20;;;;;;5095123;28;20411;-67
2022/08/16 09:17:32;;;;;;;2.17;0.90;;;28.60;52.40;;;;;;5095053;28;20431;-67
2022/08/16 09:19:58;;;;;;;0.80;0.80;;;27.90;53.80;;;;;;5094864;28;20452;-70
2022/08/16 09:22:26;;;;;;;0.63;0.63;;;27.30;55.90;;;;;;5094920;28;20784;-70
2022/08/16 09:24:51;;;;;;;0.97;0.97;;;26.60;56.20;;;;;;5094892;28;20168;-70
2022/08/16 09:27:17;;;;;;;0.73;0.73;;;26.20;57.40;;;;;;5094807;28;20431;-71
2022/08/16 09:29:43;;;;;;;1.10;1.00;;;26.10;58.00;;;;;;5094713;28;20169;-70
2022/08/16 09:32:09;;;;;;;0.70;0.70;;;25.90;58.90;;;;;;5094644;28;20184;-70
2022/08/16 09:34:35;;;;;;;1.20;1.10;;;26.10;59.20;;;;;;5094801;28;20434;-70
2022/08/16 09:37:01;;;;;;;1.07;1.00;;;26.40;59.30;;;;;;5094539;28;20825;-70
2022/08/16 09:39:27;;;;;;;1.00;1.00;;;26.70;59.30;;;;;;5094484;28;20409;-70
2022/08/16 09:41:55;;;;;;;1.00;1.00;;;27.50;57.90;;;;;;5094435;28;20204;-70
2022/08/16 09:44:25;;;;;;;0.93;0.93;;;28.40;55.40;;;;;;5094732;28;20811;-71
2022/08/16 09:46:55;;;;;;;1.27;1.20;;;28.60;54.50;;;;;;5094489;28;20430;-71
2022/08/16 09:49:22;;;;;;;1.37;1.27;;;28.20;55.20;;;;;;5094257;28;20403;-71
2022/08/16 09:51:53;;;;;;;1.00;0.60;;;28.10;55.20;;;;;;5094408;28;20406;-71
2022/08/16 09:54:21;;;;;;;0.90;0.80;;;27.90;56.00;;;;;;5094381;28;20377;-71
2022/08/16 09:56:48;;;;;;;1.53;1.20;;;27.70;56.80;;;;;;5094396;28;20434;-71
2022/08/16 09:59:14;;;;;;;1.43;1.33;;;27.30;58.30;;;;;;5094044;28;20426;-70
2022/08/16 10:01:41;;;;;;;1.10;1.10;;;27.30;57.80;;;;;;5094254;28;20447;-70
2022/08/16 10:04:07;;;;;;;1.53;0.87;;;27.60;57.30;;;;;;5094058;28;20502;-70
2022/08/16 10:06:33;;;;;;;1.17;1.07;;;28.60;57.30;;;;;;5093965;28;20513;-71
2022/08/16 10:08:59;;;;;;;1.20;1.20;;;29.10;55.00;;;;;;5094073;28;20439;-71
2022/08/16 10:14:09;;;;;;;1.03;0.70;;;28.70;54.30;;;;;;5094242;28;20183;-70
2022/08/16 10:16:35;;;;;;;1.17;0.83;;;27.90;56.30;;;;;;5093841;28;20525;-71
2022/08/16 10:19:01;;;;;;;0.60;0.60;;;27.80;56.10;;;;;;5075719;28;20172;-71
2022/08/16 10:21:27;;;;;;;1.27;1.20;;;27.90;56.50;;;;;;5093086;28;20454;-71
2022/08/16 10:23:53;;;;;;;1.10;1.00;;;27.80;57.60;;;;;;5093972;28;20212;-70
2022/08/16 10:26:20;;;;;;;1.17;1.07;;;27.30;55.70;;;;;;5093898;28;20437;-70
2022/08/16 10:28:46;;;;;;;1.13;1.03;;;27.10;56.60;;;;;;5093563;28;20448;-71
2022/08/16 10:31:12;;;;;;;1.20;1.10;;;27.30;58.20;;;;;;5093709;28;20377;-70
2022/08/16 10:33:39;;;;;;;0.73;0.60;;;27.50;56.00;;;;;;5093759;28;20643;-70
2022/08/16 10:36:06;;;;;;;1.03;0.77;;;27.30;56.70;;;;;;5093676;28;20191;-71
2022/08/16 10:38:36;;;;;;;1.33;1.23;;;27.00;56.20;;;;;;5093483;28;20438;-70
2022/08/16 10:41:02;;;;;;;1.00;0.97;;;27.40;56.50;;;;;;5093900;28;20457;-70
2022/08/16 10:43:28;;;;;;;1.17;1.07;;;27.80;54.00;;;;;;5093522;28;20398;-70
2022/08/16 10:45:54;;;;;;;1.83;1.00;;;28.20;53.10;;;;;;5093723;28;20793;-70
2022/08/16 10:48:20;;;;;;;1.37;1.07;;;28.70;50.60;;;;;;5075311;28;20181;-70
2022/08/16 10:50:45;;;;;;;1.17;1.07;;;29.00;52.10;;;;;;5093759;28;20176;-70
2022/08/16 10:53:11;;;;;;;1.17;0.90;;;29.00;51.30;;;;;;5093806;28;20169;-70
2022/08/16 10:55:39;;;;;;;1.67;1.57;;;28.80;51.80;;;;;;5093429;28;20686;-71
2022/08/16 10:58:08;;;;;;;1.63;1.10;;;28.50;52.20;;;;;;5093179;28;20287;-71
2022/08/16 11:00:39;;;;;;;1.13;1.07;;;28.30;53.00;;;;;;5093397;28;20465;-71
2022/08/16 11:03:06;;;;;;;1.17;0.70;;;27.80;52.90;;;;;;5093365;28;20435;-70
2022/08/16 11:05:34;;;;;;;1.33;0.83;;;27.40;54.90;;;;;;5093490;28;20399;-71
2022/08/16 11:08:01;;;;;;;3.13;1.00;;;27.10;53.80;;;;;;5093161;28;20796;-70
2022/08/16 11:10:33;;;;;;;0.73;0.70;;;27.00;54.80;;;;;;5093288;28;20488;-70
2022/08/16 11:12:59;;;;;;;1.00;0.80;;;27.20;55.40;;;;;;5093567;28;20386;-70
2022/08/16 11:15:25;;;;;;;0.80;0.80;;;27.40;54.10;;;;;;5093387;28;20414;-71
2022/08/16 11:17:52;;;;;;;1.03;0.93;;;27.50;55.40;;;;;;5093038;28;20196;-71
2022/08/16 11:20:18;;;;;;;0.70;0.70;;;27.70;55.20;;;;;;5093237;28;20950;-70
2022/08/16 11:22:45;;;;;;;0.73;0.73;;;27.90;53.30;;;;;;5093347;28;20403;-71
2022/08/16 11:25:12;;;;;;;1.73;1.23;;;28.00;52.00;;;;;;5093208;28;20168;-71
2022/08/16 11:27:38;;;;;;;0.60;0.60;;;27.90;51.00;;;;;;5093024;28;20432;-71
2022/08/16 11:30:05;;;;;;;1.03;0.70;;;27.70;50.50;;;;;;5093229;28;20492;-70
2022/08/16 11:32:30;;;;;;;0.83;0.60;;;27.60;51.60;;;;;;5093974;28;20183;-71
2022/08/16 11:34:56;;;;;;;0.50;0.50;;;27.40;50.60;;;;;;5097131;28;20407;-71
2022/08/16 11:37:22;;;;;;;0.70;0.70;;;27.30;50.90;;;;;;5097065;28;20196;-70
2022/08/16 11:39:48;;;;;;;0.87;0.87;;;27.50;52.30;;;;;;5096679;28;20656;-71
2022/08/16 11:42:14;;;;;;;0.93;0.93;;;27.80;50.90;;;;;;5096852;28;20523;-71
2022/08/16 11:44:40;;;;;;;1.47;1.23;;;27.90;52.00;;;;;;5096901;28;20173;-70
2022/08/16 11:47:05;;;;;;;0.80;0.70;;;28.00;50.70;;;;;;5096903;28;20189;-71
2022/08/16 11:49:31;;;;;;;1.33;1.07;;;27.90;50.30;;;;;;5096684;28;20196;-70
2022/08/16 11:51:57;;;;;;;1.27;1.17;;;27.90;52.20;;;;;;5078653;28;20318;-70
2022/08/16 11:54:23;;;;;;;1.13;1.10;;;27.60;51.60;;;;;;5096655;28;20200;-70
2022/08/16 11:56:49;;;;;;;2.17;1.00;;;27.60;51.20;;;;;;5096689;28;20423;-71
2022/08/16 11:59:17;;;;;;;0.63;0.63;;;27.80;50.40;;;;;;5096313;28;20175;-71
2022/08/16 12:01:44;;;;;;;1.20;1.20;;;27.70;47.10;;;;;;5096443;28;20545;-71
2022/08/16 12:04:10;;;;;;;0.60;0.60;;;27.60;47.90;;;;;;5096395;28;20468;-70
2022/08/16 12:06:36;;;;;;;0.80;0.67;;;27.50;50.00;;;;;;5096446;28;20401;-71
2022/08/16 12:09:04;;;;;;;1.17;1.10;;;27.60;50.00;;;;;;5096292;28;20407;-71
2022/08/16 12:11:30;;;;;;;0.70;0.70;;;27.80;49.20;;;;;;5096348;28;20768;-71
2022/08/16 12:13:56;;;;;;;1.10;0.87;;;27.90;52.40;;;;;;5096334;28;20810;-70
2022/08/16 12:16:21;;;;;;;0.90;0.80;;;27.90;49.70;;;;;;5096259;28;20422;-71
2022/08/16 12:18:48;;;;;;;0.97;0.63;;;27.90;50.40;;;;;;5096032;28;20621;-71
2022/08/16 12:21:15;;;;;;;0.90;0.90;;;27.90;48.30;;;;;;5096185;28;20192;-70
2022/08/16 12:23:40;;;;;;;1.13;1.03;;;27.80;49.10;;;;;;5096016;28;20417;-71
2022/08/16 12:26:06;;;;;;;0.67;0.67;;;27.70;48.50;;;;;;5096004;28;20423;-70
2022/08/16 12:28:31;;;;;;;0.53;0.50;;;27.70;50.10;;;;;;5095974;28;20169;-70
2022/08/16 12:30:57;;;;;;;0.80;0.70;;;27.80;50.40;;;;;;5096086;28;20176;-71
2022/08/16 12:33:23;;;;;;;0.80;0.80;;;27.90;48.40;;;;;;5095807;28;20179;-71
2022/08/16 12:35:49;;;;;;;0.87;0.87;;;28.00;47.70;;;;;;5095870;28;20187;-70
2022/08/16 12:38:15;;;;;;;1.00;1.00;;;28.00;48.00;;;;;;5077535;28;20227;-70
2022/08/16 12:40:48;;;;;;;1.20;0.80;;;28.10;48.20;;;;;;5095710;28;20200;-71
2022/08/16 12:43:14;;;;;;;1.03;0.93;;;28.00;45.70;;;;;;5095791;28;20396;-71
2022/08/16 12:45:44;;;;;;;0.80;0.60;;;27.80;46.10;;;;;;5095062;28;20939;-71
2022/08/16 12:50:56;;;;;;;0.90;0.90;;;27.50;46.90;;;;;;5095682;28;20936;-70